GVAC/SID METAR and TAF weather

Enter ICAO airport designator
Station Type Date Time Source
GVAC METAR 2019/04/26 04:00 UTC NOAA

GVAC 260400Z 04012KT 9999 SCT014 SCT200 20/17 Q1014 NOSIG


Station Type Date Time Source
GVAC Decoded METAR 2019/04/26 04:00 UTC NOAA

Sal, Cape Verde (GVAC) 16-44N 022-57W 55M
Apr 26, 2019 - 12:00 AM EDT / 2019.04.26 0400 UTC
Wind: from the NE (040 degrees) at 14 MPH (12 KT):0
Visibility: greater than 7 mile(s):0
Sky conditions: partly cloudy
Temperature: 68 F (20 C)
Dew Point: 62 F (17 C)
Relative Humidity: 82%
Pressure (altimeter): 29.94 in. Hg (1014 hPa)
ob: GVAC 260400Z 04012KT 9999 SCT014 SCT200 20/17 Q1014 NOSIG
cycle: 4

Station Type Date Time Source
GVAC TAF 2019/04/25 18:57 UTC NOAA

TAF GVAC 251700Z 2518/2624 04016KT 9999 SCT014
TEMPO 2523/2607 BKN014

Example: see airport list